Time;durP1;ratioP1;P1;durP2;ratioP2;P2;SDS_P1;SDS_P2;PMS_P1;PMS_P2;Temp;Humidity;BMP_temperature;BMP_pressure;BME280_temperature;BME280_humidity;BME280_pressure;Samples;Min_cycle;Max_cycle;Signal;HPM_P1;HPM_P2
2023/01/12 00:01:15;;;;;;;19.27;5.65;;;;;;;5.76;100.00;99920.00;4968625;28;19922;-73
2023/01/12 00:03:41;;;;;;;21.20;5.17;;;;;;;5.75;100.00;99919.16;4970132;28;20034;-72
2023/01/12 00:06:06;;;;;;;18.40;6.17;;;;;;;5.71;100.00;99920.44;4975011;28;20031;-73
2023/01/12 00:08:35;;;;;;;17.52;4.68;;;;;;;5.66;100.00;99926.19;4968696;28;20493;-72
2023/01/12 00:11:01;;;;;;;21.60;6.40;;;;;;;5.72;100.00;99936.19;4968423;28;20135;-72
2023/01/12 00:13:31;;;;;;;16.33;5.25;;;;;;;5.71;100.00;99925.75;4968687;28;20397;-72
2023/01/12 00:18:41;;;;;;;22.70;4.97;;;;;;;5.83;100.00;99924.56;4981137;28;20034;-72
2023/01/12 00:21:07;;;;;;;17.88;5.03;;;;;;;5.85;100.00;99898.75;4968210;28;20062;-72
2023/01/12 00:23:32;;;;;;;10.40;3.47;;;;;;;5.83;100.00;99903.34;4981528;28;20035;-72
2023/01/12 00:25:57;;;;;;;10.33;3.43;;;;;;;5.86;100.00;99884.50;4968168;28;20115;-72
2023/01/12 00:28:23;;;;;;;17.93;3.97;;;;;;;5.86;100.00;99887.16;4950937;28;20404;-72
2023/01/12 00:30:48;;;;;;;15.23;4.23;;;;;;;5.84;100.00;99883.81;4976202;28;20041;-72
2023/01/12 00:33:13;;;;;;;21.13;5.13;;;;;;;5.87;100.00;99870.25;4972647;28;20118;-72
2023/01/12 00:35:39;;;;;;;14.40;4.17;;;;;;;5.89;100.00;99876.22;4975810;28;20113;-72
2023/01/12 00:38:05;;;;;;;14.03;3.87;;;;;;;5.86;100.00;99871.25;4970609;28;20081;-72
2023/01/12 00:40:31;;;;;;;10.10;4.28;;;;;;;5.83;100.00;99866.28;4979619;28;20121;-72
2023/01/12 00:45:40;;;;;;;14.63;4.25;;;;;;;5.95;100.00;99864.25;4974548;28;20487;-72
2023/01/12 00:48:09;;;;;;;25.60;5.33;;;;;;;5.92;100.00;99862.69;4974767;28;20045;-72
2023/01/12 00:50:35;;;;;;;10.70;3.67;;;;;;;5.91;100.00;99839.00;4974302;28;20034;-72
2023/01/12 00:53:00;;;;;;;16.13;3.70;;;;;;;5.98;100.00;99844.56;4974630;28;20424;-72
2023/01/12 00:55:25;;;;;;;12.87;3.93;;;;;;;6.00;100.00;99831.97;4962785;28;20038;-72
2023/01/12 00:57:51;;;;;;;17.47;3.90;;;;;;;6.01;100.00;99817.75;4968431;28;20049;-72
2023/01/12 01:00:16;;;;;;;12.67;3.97;;;;;;;6.05;100.00;99817.28;4974497;28;20034;-72
2023/01/12 01:02:42;;;;;;;18.70;3.83;;;;;;;6.09;100.00;99793.94;4962270;28;20047;-72
2023/01/12 01:05:07;;;;;;;13.73;3.63;;;;;;;6.10;100.00;99811.50;4982382;28;20034;-72
2023/01/12 01:07:33;;;;;;;8.45;3.38;;;;;;;6.06;100.00;99818.09;4967208;28;20031;-73
2023/01/12 01:09:58;;;;;;;10.10;3.50;;;;;;;6.12;100.00;99823.59;4985442;28;20042;-73
2023/01/12 01:12:24;;;;;;;19.97;4.90;;;;;;;6.08;100.00;99827.53;4971810;28;20477;-73
2023/01/12 01:14:49;;;;;;;11.50;3.97;;;;;;;6.00;100.00;99859.31;4967370;28;20108;-73
2023/01/12 01:17:15;;;;;;;16.33;3.50;;;;;;;5.92;100.00;99875.94;4968445;28;20057;-74
2023/01/12 01:19:42;;;;;;;7.10;2.77;;;;;;;5.88;100.00;99887.00;4967403;28;20030;-73
2023/01/12 01:22:07;;;;;;;10.52;3.05;;;;;;;5.75;100.00;99884.72;4973721;28;20037;-73
2023/01/12 01:24:32;;;;;;;10.33;2.60;;;;;;;5.64;100.00;99892.91;4975478;28;20121;-72
2023/01/12 01:26:58;;;;;;;7.20;2.87;;;;;;;5.57;100.00;99882.09;4974931;28;20066;-72
2023/01/12 01:29:23;;;;;;;8.80;2.50;;;;;;;5.58;100.00;99898.81;4974149;28;20133;-72
2023/01/12 01:31:48;;;;;;;14.77;2.60;;;;;;;5.54;100.00;99897.44;4980608;28;20690;-72
2023/01/12 01:34:14;;;;;;;9.93;2.27;;;;;;;5.61;100.00;99901.16;4972928;28;20037;-72
2023/01/12 01:36:39;;;;;;;12.23;3.47;;;;;;;5.71;100.00;99899.25;4979957;28;20042;-72
2023/01/12 01:39:05;;;;;;;16.87;2.90;;;;;;;5.69;100.00;99886.19;4952603;28;20054;-73
2023/01/12 01:41:32;;;;;;;13.10;3.70;;;;;;;5.69;100.00;99874.75;4963124;28;20082;-72
2023/01/12 01:44:03;;;;;;;7.90;2.92;;;;;;;5.70;100.00;99881.72;4972531;28;20073;-72
2023/01/12 01:46:33;;;;;;;9.30;2.70;;;;;;;5.72;100.00;99866.50;4971889;28;20038;-72
2023/01/12 01:49:08;;;;;;;10.32;1.95;;;;;;;5.67;100.00;99877.56;4969447;28;20045;-72
2023/01/12 01:51:34;;;;;;;8.20;2.72;;;;;;;5.69;100.00;99858.88;4975167;28;20043;-72
2023/01/12 01:54:00;;;;;;;18.27;2.38;;;;;;;5.61;100.00;99837.59;4982050;28;20085;-72
2023/01/12 01:56:30;;;;;;;6.95;1.65;;;;;;;5.66;100.00;99832.69;4977567;28;20037;-72
2023/01/12 01:59:01;;;;;;;9.80;2.10;;;;;;;5.59;100.00;99826.31;4966803;28;20047;-72
2023/01/12 02:01:27;;;;;;;8.30;2.40;;;;;;;5.54;100.00;99816.19;4974860;28;20034;-72
2023/01/12 02:03:54;;;;;;;6.63;1.17;;;;;;;5.58;100.00;99812.25;4980604;28;20034;-72
2023/01/12 02:06:23;;;;;;;12.07;3.15;;;;;;;5.56;100.00;99803.63;4973331;28;20117;-73
2023/01/12 02:08:56;;;;;;;8.05;2.22;;;;;;;5.52;100.00;99781.09;4982870;28;20129;-72
2023/01/12 02:17:26;;;;;;;7.97;1.80;;;;;;;5.62;100.00;99781.00;4975738;28;20125;-73
2023/01/12 02:20:17;;;;;;;8.38;1.40;;;;;;;5.67;100.00;99773.44;4977614;28;20498;-73
2023/01/12 02:23:20;;;;;;;5.18;1.45;;;;;;;5.74;100.00;99761.25;4974133;28;20056;-72
2023/01/12 02:26:04;;;;;;;14.82;1.88;;;;;;;5.75;100.00;99762.91;4982309;28;20038;-72
2023/01/12 02:29:08;;;;;;;9.10;2.03;;;;;;;5.75;100.00;99760.25;4965576;28;20045;-72
2023/01/12 02:31:41;;;;;;;11.68;2.47;;;;;;;5.80;100.00;99759.78;4948387;28;20508;-72
2023/01/12 02:34:27;;;;;;;14.00;2.95;;;;;;;5.74;100.00;99760.41;4962962;28;20033;-72
2023/01/12 02:37:13;;;;;;;11.80;1.73;;;;;;;5.68;100.00;99751.25;4981376;28;20162;-72
2023/01/12 02:39:43;;;;;;;14.13;2.08;;;;;;;5.62;100.00;99758.03;4977940;28;20085;-72
2023/01/12 02:42:40;;;;;;;10.13;2.42;;;;;;;5.63;100.00;99748.25;4959585;28;20034;-73
2023/01/12 02:45:24;;;;;;;6.93;1.67;;;;;;;5.57;100.00;99732.97;4967279;28;20101;-72
2023/01/12 02:48:08;;;;;;;9.63;1.92;;;;;;;5.53;100.00;99729.00;4960399;28;20039;-72
2023/01/12 02:51:18;;;;;;;19.40;3.83;;;;;;;5.50;100.00;99728.31;4981231;28;20546;-72
2023/01/12 02:53:49;;;;;;;11.38;1.90;;;;;;;5.57;100.00;99732.97;4927783;29;20055;-72
2023/01/12 02:56:30;;;;;;;5.20;2.03;;;;;;;5.56;100.00;99733.97;4914179;29;20126;-72
2023/01/12 02:59:01;;;;;;;11.02;3.15;;;;;;;5.49;100.00;99729.28;4918608;29;20051;-72
2023/01/12 03:01:28;;;;;;;16.55;2.20;;;;;;;5.53;100.00;99731.66;4899917;29;20036;-72
2023/01/12 03:03:57;;;;;;;15.32;2.75;;;;;;;5.57;100.00;99732.97;4918191;29;20042;-72
2023/01/12 03:06:22;;;;;;;7.20;2.00;;;;;;;5.55;100.00;99729.66;4919919;29;20043;-72
2023/01/12 03:08:50;;;;;;;11.03;3.07;;;;;;;5.56;100.00;99726.03;4912211;29;20036;-72
2023/01/12 03:11:20;;;;;;;15.02;2.28;;;;;;;5.59;100.00;99737.13;4928675;29;20093;-73
2023/01/12 03:13:49;;;;;;;11.13;1.77;;;;;;;5.54;100.00;99730.66;4917933;29;20308;-72
2023/01/12 03:16:20;;;;;;;9.38;2.17;;;;;;;5.52;100.00;99746.66;4928676;29;20087;-72
2023/01/12 03:19:00;;;;;;;12.15;2.70;;;;;;;5.54;100.00;99752.66;4923202;29;20479;-72
2023/01/12 03:21:34;;;;;;;13.32;2.33;;;;;;;5.53;100.00;99755.47;4908727;29;20036;-72
2023/01/12 03:24:13;;;;;;;17.20;1.73;;;;;;;5.50;100.00;99753.94;4912910;29;20048;-72
2023/01/12 03:26:47;;;;;;;14.88;1.60;;;;;;;5.50;100.00;99744.19;4928314;29;20054;-72
2023/01/12 03:29:24;;;;;;;10.60;3.28;;;;;;;5.47;100.00;99756.91;4926154;28;20183;-72
2023/01/12 03:31:49;;;;;;;12.70;1.77;;;;;;;5.47;100.00;99749.78;4983315;28;20045;-72
2023/01/12 03:34:15;;;;;;;10.80;3.47;;;;;;;5.49;100.00;99763.69;4969937;28;20022;-72
2023/01/12 03:36:54;;;;;;;10.50;1.97;;;;;;;5.52;100.00;99756.44;4974720;28;20034;-73
2023/01/12 03:39:38;;;;;;;8.27;2.25;;;;;;;5.52;100.00;99756.44;4963625;28;20035;-72
2023/01/12 03:42:24;;;;;;;10.77;2.03;;;;;;;5.49;100.00;99763.69;4972860;28;20499;-72
2023/01/12 03:45:16;;;;;;;12.10;2.45;;;;;;;5.42;100.00;99757.34;4953540;28;20057;-72
2023/01/12 03:47:43;;;;;;;15.25;2.63;;;;;;;5.45;100.00;99770.28;4979779;28;20034;-72
2023/01/12 03:50:13;;;;;;;12.98;2.30;;;;;;;5.39;100.00;99772.72;4973803;28;20031;-72
2023/01/12 03:52:41;;;;;;;8.00;2.17;;;;;;;5.41;100.00;99784.81;4981888;28;20042;-72
2023/01/12 03:55:10;;;;;;;11.07;2.75;;;;;;;5.39;100.00;99780.69;4961686;28;20118;-72
2023/01/12 03:57:37;;;;;;;12.38;3.22;;;;;;;5.42;100.00;99790.94;4969352;28;20515;-72
2023/01/12 04:00:07;;;;;;;11.57;2.78;;;;;;;5.41;100.00;99782.19;4977994;28;20087;-72
2023/01/12 04:02:37;;;;;;;14.52;3.10;;;;;;;5.43;100.00;99780.22;4979557;28;20045;-72
2023/01/12 04:05:05;;;;;;;8.43;1.73;;;;;;;5.46;100.00;99768.50;4969005;28;20034;-72
2023/01/12 04:07:31;;;;;;;13.63;3.17;;;;;;;5.45;100.00;99759.69;4981162;28;20790;-72
2023/01/12 04:09:56;;;;;;;9.47;1.70;;;;;;;5.48;100.00;99751.47;4981257;28;20030;-73
2023/01/12 04:12:21;;;;;;;11.17;2.63;;;;;;;5.56;100.00;99747.22;4967377;28;20820;-73
2023/01/12 04:14:47;;;;;;;6.50;1.47;;;;;;;5.54;100.00;99733.28;4967645;28;20027;-73
2023/01/12 04:17:13;;;;;;;7.10;1.40;;;;;;;5.52;100.00;99725.50;4967126;28;20113;-72
2023/01/12 04:19:39;;;;;;;8.38;1.95;;;;;;;5.51;100.00;99713.25;4999947;23;20050;-86
2023/01/12 04:24:49;;;;;;;5.82;2.00;;;;;;;5.44;100.00;99686.56;4992011;28;20042;-87
2023/01/12 04:27:15;;;;;;;7.05;2.53;;;;;;;5.36;100.00;99685.66;4991856;28;20029;-86
2023/01/12 04:29:41;;;;;;;4.35;1.33;;;;;;;5.35;100.00;99692.78;4975639;28;20038;-86
2023/01/12 04:32:06;;;;;;;8.25;1.73;;;;;;;5.29;100.00;99688.94;4975528;28;20031;-86
2023/01/12 04:34:32;;;;;;;5.88;1.73;;;;;;;5.27;100.00;99692.75;4972918;28;20243;-85
2023/01/12 04:36:59;;;;;;;12.60;2.30;;;;;;;5.23;100.00;99694.84;4975711;28;20126;-87
2023/01/12 04:39:25;;;;;;;4.05;1.70;;;;;;;5.28;100.00;99719.03;4975659;28;20439;-87
2023/01/12 04:41:50;;;;;;;10.33;2.00;;;;;;;5.29;100.00;99731.31;4976059;28;20080;-86
2023/01/12 04:44:15;;;;;;;8.40;1.97;;;;;;;5.31;100.00;99747.00;4992440;28;20031;-87
2023/01/12 04:46:41;;;;;;;7.30;2.33;;;;;;;5.33;100.00;99750.34;4975804;28;20510;-86
2023/01/12 04:49:06;;;;;;;8.13;2.10;;;;;;;5.40;100.00;99764.63;4976107;28;20068;-85
2023/01/12 04:51:32;;;;;;;13.30;2.40;;;;;;;5.44;100.00;99754.56;4991693;28;20026;-86
2023/01/12 04:53:57;;;;;;;12.07;2.83;;;;;;;5.45;100.00;99762.34;4975825;28;20038;-87
2023/01/12 04:56:22;;;;;;;12.43;2.87;;;;;;;5.51;100.00;99763.56;4976002;28;20304;-85
2023/01/12 04:58:48;;;;;;;11.87;2.50;;;;;;;5.53;100.00;99752.81;4998502;28;20074;-84
2023/01/12 05:01:16;;;;;;;13.20;3.87;;;;;;;5.55;100.00;99754.31;4988834;28;20037;-87
2023/01/12 05:03:42;;;;;;;13.95;3.08;;;;;;;5.58;100.00;99750.53;4975333;28;20025;-88
2023/01/12 05:06:08;;;;;;;15.18;4.80;;;;;;;5.60;100.00;99743.28;4974598;28;20058;-88
2023/01/12 05:11:20;;;;;;;8.10;3.33;;;;;;;5.63;100.00;99732.38;4991035;28;20042;-88
2023/01/12 05:13:45;;;;;;;15.43;2.90;;;;;;;5.66;100.00;99732.03;4973677;28;20030;-88
2023/01/12 05:16:14;;;;;;;15.30;3.80;;;;;;;5.65;100.00;99728.56;4974653;28;20475;-88
2023/01/12 05:18:40;;;;;;;11.68;2.80;;;;;;;5.67;100.00;99723.94;4974319;28;20069;-88
2023/01/12 05:21:06;;;;;;;10.48;3.00;;;;;;;5.73;100.00;99711.88;4990560;28;20461;-88
2023/01/12 05:23:31;;;;;;;14.27;2.80;;;;;;;5.72;100.00;99715.53;4985045;28;20051;-87
2023/01/12 05:26:02;;;;;;;20.20;3.97;;;;;;;5.81;100.00;99711.97;4972037;28;20286;-88
2023/01/12 05:28:28;;;;;;;10.45;2.45;;;;;;;5.78;100.00;99696.34;4974653;28;20491;-87
2023/01/12 05:30:54;;;;;;;14.55;3.88;;;;;;;5.83;100.00;99695.88;4990442;28;20422;-87
2023/01/12 05:33:19;;;;;;;15.27;3.88;;;;;;;5.88;100.00;99691.78;4974171;28;20113;-87
2023/01/12 05:35:45;;;;;;;10.20;2.37;;;;;;;5.87;100.00;99676.88;4973910;28;20045;-88
2023/01/12 05:38:11;;;;;;;12.52;3.88;;;;;;;5.85;100.00;99665.63;4980989;28;20121;-87
2023/01/12 05:40:37;;;;;;;9.55;2.90;;;;;;;5.86;100.00;99661.16;4974028;28;20034;-89
2023/01/12 05:45:46;;;;;;;14.52;3.92;;;;;;;5.96;100.00;99658.41;4989974;28;20045;-88
2023/01/12 05:48:12;;;;;;;9.40;3.60;;;;;;;5.95;100.00;99652.28;4989897;28;20100;-88
2023/01/12 05:50:37;;;;;;;12.73;4.70;;;;;;;6.03;100.00;99638.22;4984986;28;20073;-88
2023/01/12 05:53:07;;;;;;;16.67;4.57;;;;;;;6.00;100.00;99626.13;4974973;28;20037;-88
2023/01/12 05:55:36;;;;;;;15.52;3.88;;;;;;;6.01;100.00;99617.19;4984907;28;20038;-88
2023/01/12 05:58:04;;;;;;;15.30;5.05;;;;;;;6.00;100.00;99598.81;4974974;28;20439;-88
2023/01/12 06:00:30;;;;;;;15.30;4.10;;;;;;;6.07;100.00;99607.78;4974304;28;20033;-89
2023/01/12 06:02:55;;;;;;;8.90;4.57;;;;;;;6.02;100.00;99597.66;4974152;28;20034;-88
2023/01/12 06:05:21;;;;;;;13.40;3.50;;;;;;;6.06;100.00;99603.47;4973602;28;20087;-88
2023/01/12 06:07:46;;;;;;;16.77;4.07;;;;;;;6.10;100.00;99599.50;4973721;28;20045;-88
2023/01/12 06:10:11;;;;;;;16.00;4.17;;;;;;;6.15;100.00;99597.19;4990105;28;20031;-88
2023/01/12 06:15:21;;;;;;;13.45;4.00;;;;;;;6.11;100.00;99598.50;4991892;28;20034;-88
2023/01/12 06:17:46;;;;;;;16.47;5.77;;;;;;;6.09;100.00;99603.97;4973476;28;20180;-88
2023/01/12 06:20:16;;;;;;;9.20;4.30;;;;;;;6.06;100.00;99612.25;4988879;28;21304;-88
2023/01/12 06:22:44;;;;;;;20.83;4.40;;;;;;;6.05;100.00;99633.59;4972417;28;20030;-88
2023/01/12 06:25:10;;;;;;;13.25;5.30;;;;;;;6.00;100.00;99647.34;4972130;28;20026;-88
2023/01/12 06:27:37;;;;;;;13.57;5.30;;;;;;;5.98;100.00;99664.38;4970177;28;20465;-89
2023/01/12 06:30:04;;;;;;;17.85;5.88;;;;;;;5.93;100.00;99660.34;4989693;28;20035;-88
2023/01/12 06:32:30;;;;;;;13.07;4.18;;;;;;;5.95;100.00;99669.97;4973532;28;20152;-89
2023/01/12 06:34:57;;;;;;;14.80;5.00;;;;;;;5.96;100.00;99679.59;4973597;28;20117;-89
2023/01/12 06:37:23;;;;;;;11.68;4.40;;;;;;;5.99;100.00;99673.97;4974050;28;20062;-88
2023/01/12 06:39:48;;;;;;;14.75;4.45;;;;;;;5.96;100.00;99669.00;4973661;28;20057;-88
2023/01/12 06:42:28;;;;;;;11.47;4.17;;;;;;;5.99;100.00;99674.81;4989744;28;20379;-88
2023/01/12 06:44:59;;;;;;;17.88;6.80;;;;;;;5.95;100.00;99669.97;4990955;28;20117;-88
2023/01/12 06:47:26;;;;;;;10.27;5.28;;;;;;;5.95;100.00;99673.47;4976757;28;20113;-88
2023/01/12 06:49:52;;;;;;;10.05;3.80;;;;;;;5.91;100.00;99662.31;4976467;28;20030;-88
2023/01/12 06:52:23;;;;;;;14.63;5.07;;;;;;;5.93;100.00;99664.81;4992241;28;20037;-87
2023/01/12 06:55:13;;;;;;;14.05;5.28;;;;;;;5.96;100.00;99661.06;4991569;28;20056;-85
2023/01/12 06:57:38;;;;;;;13.38;5.05;;;;;;;5.97;100.00;99654.75;4899155;29;20055;-85
2023/01/12 07:00:05;;;;;;;17.90;7.37;;;;;;;5.95;100.00;99640.84;4899887;29;20036;-86
2023/01/12 07:02:30;;;;;;;14.80;5.43;;;;;;;5.96;100.00;99645.16;4898899;29;20115;-86
2023/01/12 07:04:55;;;;;;;8.88;4.40;;;;;;;6.03;100.00;99636.41;4900495;29;20441;-87
2023/01/12 07:07:21;;;;;;;12.50;5.97;;;;;;;5.96;100.00;99619.50;4917043;29;20046;-88
2023/01/12 07:09:46;;;;;;;13.07;6.18;;;;;;;5.93;100.00;99617.97;4899474;29;20087;-85
2023/01/12 07:12:12;;;;;;;12.70;7.03;;;;;;;5.95;100.00;99609.91;4894013;29;20054;-85
2023/01/12 07:14:37;;;;;;;11.77;5.43;;;;;;;5.91;100.00;99588.16;4900176;29;20179;-87
2023/01/12 07:17:02;;;;;;;11.10;5.90;;;;;;;5.93;100.00;99596.78;4900031;29;20047;-82
2023/01/12 07:19:28;;;;;;;10.90;6.13;;;;;;;5.99;100.00;99592.66;4899526;29;20044;-84
2023/01/12 07:21:53;;;;;;;14.63;7.10;;;;;;;6.00;100.00;99586.41;4894601;29;20043;-86
2023/01/12 07:24:19;;;;;;;13.27;6.00;;;;;;;5.92;100.00;99576.59;4900120;29;20028;-83
2023/01/12 07:26:48;;;;;;;17.67;5.30;;;;;;;6.00;100.00;99585.56;4904827;29;20528;-88
2023/01/12 07:29:14;;;;;;;15.45;4.75;;;;;;;5.97;100.00;99575.28;4899664;29;20067;-87
2023/01/12 07:31:39;;;;;;;13.52;5.25;;;;;;;5.98;100.00;99571.66;4897660;29;20044;-86
2023/01/12 07:34:04;;;;;;;13.80;5.93;;;;;;;6.01;100.00;99574.78;4918848;28;20049;-86
2023/01/12 07:36:30;;;;;;;8.80;5.33;;;;;;;5.99;100.00;99568.00;4974580;28;20351;-87
2023/01/12 07:38:55;;;;;;;12.02;5.47;;;;;;;6.00;100.00;99553.78;4977754;28;20044;-87
2023/01/12 07:44:08;;;;;;;15.45;6.00;;;;;;;6.04;100.00;99547.13;4994174;28;20053;-83
2023/01/12 07:46:33;;;;;;;10.70;5.18;;;;;;;6.08;100.00;99532.59;4975306;28;20129;-86
2023/01/12 07:48:59;;;;;;;10.23;5.77;;;;;;;6.11;100.00;99524.31;4976635;28;20038;-87
2023/01/12 07:51:24;;;;;;;17.90;5.28;;;;;;;6.10;100.00;99522.66;4976920;28;20026;-86
2023/01/12 07:53:50;;;;;;;11.03;5.57;;;;;;;6.12;100.00;99516.19;4993037;28;20038;-86
2023/01/12 07:56:15;;;;;;;12.20;5.67;;;;;;;6.19;100.00;99510.25;4974808;28;20037;-87
2023/01/12 07:58:45;;;;;;;7.67;4.83;;;;;;;6.21;100.00;99498.50;4995630;28;20042;-82
2023/01/12 08:01:11;;;;;;;11.13;5.60;;;;;;;6.22;100.00;99486.88;4995415;28;20581;-86
2023/01/12 08:03:37;;;;;;;11.63;6.00;;;;;;;6.25;100.00;99483.91;4995801;28;20093;-85
2023/01/12 08:06:03;;;;;;;8.85;4.57;;;;;;;6.29;100.00;99481.75;4978875;28;20042;-82
2023/01/12 08:08:28;;;;;;;7.03;4.32;;;;;;;6.30;100.00;99471.00;4979051;28;20398;-87
2023/01/12 08:10:54;;;;;;;11.90;4.50;;;;;;;6.29;100.00;99473.81;4976934;28;20079;-87
2023/01/12 08:13:21;;;;;;;19.40;5.63;;;;;;;6.26;100.00;99453.75;4976293;28;20026;-86
2023/01/12 08:15:48;;;;;;;12.70;5.72;;;;;;;6.30;100.00;99457.75;4976083;28;20672;-87
2023/01/12 08:18:24;;;;;;;8.75;4.90;;;;;;;6.32;100.00;99445.16;4976032;28;20042;-85
2023/01/12 08:20:52;;;;;;;10.48;4.53;;;;;;;6.34;100.00;99431.72;4992023;28;20034;-87
2023/01/12 08:23:37;;;;;;;9.90;4.85;;;;;;;6.34;100.00;99421.97;4992403;28;20045;-87
2023/01/12 08:26:09;;;;;;;8.30;4.93;;;;;;;6.40;100.00;99432.88;4976031;28;20057;-88
2023/01/12 08:28:47;;;;;;;9.27;4.25;;;;;;;6.41;100.00;99424.75;4991922;28;20030;-87
2023/01/12 08:31:15;;;;;;;5.05;3.63;;;;;;;6.43;100.00;99413.97;4991928;28;20030;-87
2023/01/12 08:33:42;;;;;;;6.22;4.05;;;;;;;6.41;100.00;99400.88;4980234;28;20495;-83
2023/01/12 08:36:11;;;;;;;10.90;4.05;;;;;;;6.40;100.00;99393.94;4969612;28;20398;-86
2023/01/12 08:38:38;;;;;;;6.53;4.45;;;;;;;6.42;100.00;99385.81;4975618;28;20116;-87
2023/01/12 08:44:05;;;;;;;7.80;4.00;;;;;;;6.47;100.00;99351.69;4991960;28;20040;-87
2023/01/12 08:46:34;;;;;;;4.22;3.20;;;;;;;6.50;100.00;99353.97;4991541;28;20510;-84
2023/01/12 08:49:00;;;;;;;5.15;3.67;;;;;;;6.50;100.00;99349.50;4974560;28;20014;-87
2023/01/12 08:51:26;;;;;;;6.57;3.65;;;;;;;6.45;100.00;99322.66;4975166;28;20035;-87
2023/01/12 08:53:51;;;;;;;13.07;3.20;;;;;;;6.48;100.00;99318.84;4991132;28;20049;-86
2023/01/12 08:56:16;;;;;;;6.43;3.22;;;;;;;6.51;100.00;99323.81;4991456;28;20284;-87
2023/01/12 08:58:42;;;;;;;5.13;2.60;;;;;;;6.57;100.00;99312.53;4982949;28;20034;-87
2023/01/12 09:01:13;;;;;;;4.57;3.03;;;;;;;6.55;100.00;99295.94;4975470;28;20538;-88
2023/01/12 09:03:39;;;;;;;7.95;2.75;;;;;;;6.57;100.00;99291.31;4978095;28;20415;-86
2023/01/12 09:06:09;;;;;;;6.18;2.17;;;;;;;6.59;100.00;99289.31;4971886;28;20030;-82
2023/01/12 09:08:35;;;;;;;5.32;2.08;;;;;;;6.57;100.00;99270.09;4986541;23;20558;-75
2023/01/12 09:11:02;;;;;;;4.07;2.47;;;;;;;6.58;100.00;99270.91;4987908;28;20106;-74
2023/01/12 09:13:28;;;;;;;7.07;2.58;;;;;;;6.55;100.00;99264.13;4987193;28;20395;-74
2023/01/12 09:15:54;;;;;;;3.55;2.00;;;;;;;6.53;100.00;99256.38;4986655;28;20108;-73
2023/01/12 09:18:20;;;;;;;4.27;1.63;;;;;;;6.51;100.00;99255.72;4982830;28;20042;-73
2023/01/12 09:20:45;;;;;;;6.23;1.63;;;;;;;6.54;100.00;99257.19;4986432;28;20088;-74
2023/01/12 09:23:10;;;;;;;3.53;1.70;;;;;;;6.53;100.00;99252.88;4970588;28;20049;-74
2023/01/12 09:25:36;;;;;;;1.90;1.63;;;;;;;6.49;100.00;99251.59;4986366;28;20089;-74
2023/01/12 09:28:01;;;;;;;4.73;1.70;;;;;;;6.52;100.00;99267.13;4970468;28;20038;-74
2023/01/12 09:30:27;;;;;;;3.53;1.47;;;;;;;6.51;100.00;99265.50;4986373;28;20614;-73
2023/01/12 09:32:54;;;;;;;1.40;1.20;;;;;;;6.52;100.00;99257.34;4985974;28;20027;-73
2023/01/12 09:35:20;;;;;;;2.15;1.17;;;;;;;6.53;100.00;99258.16;4971854;28;20050;-73
2023/01/12 09:37:46;;;;;;;1.42;1.10;;;;;;;6.52;100.00;99252.03;4980943;28;20210;-73
2023/01/12 09:40:16;;;;;;;2.13;1.40;;;;;;;6.55;100.00;99267.63;4986015;28;20475;-73
2023/01/12 09:48:20;;;;;;;1.40;1.20;;;;;;;6.50;100.00;99256.69;4981004;28;20122;-74
2023/01/12 09:51:11;;;;;;;2.47;1.15;;;;;;;6.52;100.00;99253.88;4986834;28;20034;-73
2023/01/12 09:53:39;;;;;;;1.15;1.05;;;;;;;6.58;100.00;99263.81;4984729;28;20034;-74
2023/01/12 09:56:30;;;;;;;1.63;1.05;;;;;;;6.60;100.00;99248.53;4980474;28;20506;-74
2023/01/12 09:59:14;;;;;;;1.80;0.95;;;;;;;6.65;100.00;99259.47;4980356;28;20096;-74
2023/01/12 10:01:40;;;;;;;1.75;1.27;;;;;;;6.66;100.00;99247.84;4985511;28;20034;-74
2023/01/12 10:04:05;;;;;;;0.90;0.80;;;;;;;6.62;100.00;99249.19;4987295;28;20018;-74
2023/01/12 10:06:32;;;;;;;3.08;1.15;;;;;;;6.66;100.00;99257.63;4980164;28;20065;-73
2023/01/12 10:09:08;;;;;;;3.75;1.30;;;;;;;6.69;100.00;99249.31;4985597;28;20030;-74
2023/01/12 10:11:38;;;;;;;0.85;0.80;;;;;;;6.76;100.00;99232.53;4963593;28;20035;-74
2023/01/12 10:14:49;;;;;;;2.60;0.88;;;;;;;6.85;100.00;99245.75;4969761;28;20026;-74
2023/01/12 10:17:17;;;;;;;2.78;0.80;;;;;;;6.90;100.00;99235.44;4905416;29;20484;-74
2023/01/12 10:19:53;;;;;;;0.90;0.88;;;;;;;6.93;100.00;99243.88;4977436;23;20545;-75
2023/01/12 10:22:37;;;;;;;1.70;1.25;;;;;;;6.98;100.00;99246.84;5001259;28;20041;-75
2023/01/12 10:25:34;;;;;;;0.98;0.73;;;;;;;7.01;100.00;99229.72;4998214;28;20044;-75
2023/01/12 10:28:15;;;;;;;1.05;0.90;;;;;;;7.08;100.00;99235.16;5006542;28;20036;-73
2023/01/12 10:30:41;;;;;;;2.25;1.00;;;;;;;7.13;100.00;99233.63;5004617;28;20156;-75
2023/01/12 10:33:14;;;;;;;2.70;0.70;;;;;;;7.18;100.00;99247.16;5006449;28;20040;-75
2023/01/12 10:35:55;;;;;;;2.78;1.13;;;;;;;7.20;100.00;99239.03;5000421;28;20046;-75
2023/01/12 10:38:46;;;;;;;1.35;1.10;;;;;;;7.28;100.00;99235.50;4996335;28;20065;-74
2023/01/12 10:41:15;;;;;;;2.95;1.20;;;;;;;7.36;100.00;99232.78;4990844;28;20100;-75
2023/01/12 10:43:43;;;;;;;1.33;1.08;;;;;;;7.39;100.00;99227.94;4999455;28;20491;-75
2023/01/12 10:46:10;;;;;;;1.25;0.70;;;;;;;7.42;100.00;99232.06;5000541;28;20137;-74
2023/01/12 10:48:38;;;;;;;1.55;0.80;;;;;;;7.44;100.00;99226.56;5000616;28;20391;-75
2023/01/12 10:51:06;;;;;;;1.45;0.80;;;;;;;7.40;100.00;99226.13;5002724;28;20022;-75
2023/01/12 10:53:44;;;;;;;1.42;1.00;;;;;;;7.49;100.00;99222.41;4991970;28;20534;-75
2023/01/12 10:56:22;;;;;;;1.98;0.90;;;;;;;7.51;100.00;99223.00;4984956;28;20040;-75
2023/01/12 10:58:54;;;;;;;1.85;0.90;;;;;;;7.54;100.00;99220.03;5003555;28;20060;-75
2023/01/12 11:01:20;;;;;;;1.63;1.10;;;;;;;7.55;100.00;99216.34;5004610;28;20129;-74
2023/01/12 11:03:45;;;;;;;1.50;0.90;;;;;;;7.57;100.00;99235.59;5004773;28;20032;-75
2023/01/12 11:06:29;;;;;;;3.30;1.10;;;;;;;7.55;100.00;99223.50;5001860;28;20038;-75
2023/01/12 11:08:55;;;;;;;1.83;1.17;;;;;;;7.64;100.00;99218.94;4993393;28;20061;-74
2023/01/12 11:11:29;;;;;;;1.23;0.85;;;;;;;7.67;100.00;99207.94;5004249;28;20092;-74
2023/01/12 11:13:57;;;;;;;6.18;1.08;;;;;;;7.73;100.00;99213.34;5008385;28;20045;-74
2023/01/12 11:16:27;;;;;;;0.50;0.50;;;;;;;7.72;100.00;99216.19;5002567;28;20506;-74
2023/01/12 11:19:05;;;;;;;2.20;0.95;;;;;;;7.79;100.00;99203.81;5009586;28;20026;-74
2023/01/12 11:21:35;;;;;;;3.92;1.20;;;;;;;7.77;100.00;99213.81;4986530;28;20475;-74
2023/01/12 11:24:13;;;;;;;0.60;0.60;;;;;;;7.75;100.00;99199.88;5008529;28;20403;-74
2023/01/12 11:26:53;;;;;;;0.70;0.63;;;;;;;7.80;100.00;99214.28;5002567;28;20051;-74
2023/01/12 11:29:24;;;;;;;0.95;0.60;;;;;;;7.85;100.00;99211.09;5004547;28;20092;-74
2023/01/12 11:31:55;;;;;;;0.63;0.55;;;;;;;7.81;100.00;99207.94;5008120;28;20522;-74
2023/01/12 11:34:27;;;;;;;2.78;0.77;;;;;;;7.92;100.00;99205.88;5008395;28;20048;-74
2023/01/12 11:37:01;;;;;;;1.92;0.77;;;;;;;7.90;100.00;99214.00;5002350;28;20065;-74
2023/01/12 11:39:29;;;;;;;1.13;0.70;;;;;;;7.90;100.00;99208.69;5009617;28;20037;-74
2023/01/12 11:45:11;;;;;;;0.80;0.68;;;;;;;7.95;100.00;99201.00;5008055;28;20037;-75
2023/01/12 11:47:41;;;;;;;1.60;0.80;;;;;;;7.98;100.00;99202.47;5006710;28;20065;-74
2023/01/12 11:50:17;;;;;;;2.30;0.93;;;;;;;7.99;100.00;99206.78;5009254;28;20467;-74
2023/01/12 11:52:44;;;;;;;2.10;0.80;;;;;;;8.02;100.00;99201.91;5007481;28;20030;-74
2023/01/12 11:55:15;;;;;;;3.03;1.10;;;;;;;8.03;100.00;99205.41;5007752;28;20072;-74
2023/01/12 11:58:08;;;;;;;1.85;0.90;;;;;;;8.02;100.00;99199.25;5007308;28;20486;-74
2023/01/12 12:00:46;;;;;;;1.02;0.82;;;;;;;8.14;100.00;99199.63;5005701;28;20050;-74
2023/01/12 12:03:30;;;;;;;3.95;0.98;;;;;;;8.14;100.00;99199.63;5007898;28;20073;-74
2023/01/12 12:06:31;;;;;;;0.93;0.70;;;;;;;8.19;100.00;99204.38;4996974;28;20246;-74
2023/01/12 12:09:14;;;;;;;1.20;0.80;;;;;;;8.20;100.00;99203.38;4979450;28;20041;-74
2023/01/12 12:11:47;;;;;;;1.38;1.00;;;;;;;8.21;100.00;99202.38;4985437;28;20037;-74
2023/01/12 12:14:30;;;;;;;1.83;0.82;;;;;;;8.25;100.00;99201.81;5008874;28;20113;-74
2023/01/12 12:17:09;;;;;;;1.20;1.10;;;;;;;8.23;100.00;99197.69;5007373;28;20034;-74
2023/01/12 12:19:47;;;;;;;1.20;1.10;;;;;;;8.28;100.00;99205.09;5001205;28;20455;-74